Terminal Aerodrome Forecast
Issued by NWS Charleston, WV

Current Version | Previous Version | Graphics & Text | Print | Product List | Glossary On
Versions: 1 2 3 4 5 6 7 8 9 10 11 12 13 14 15 16 17 18 19 20 21 22 23
000
FTUS41 KRLX 281800 AAA
TAFBKW
TAF AMD
KBKW 281837Z 2819/2918 26012G22KT P6SM SCT050 SCT200
     FM282100 22011G21KT P6SM BKN050
     FM282300 22008KT 5SM -SHRA BKN040
     FM290400 24005KT 5SM -SHRA BKN030
     FM290600 26005KT 5SM -SHRA BR BKN020
     FM290800 29006KT 5SM -SHRA BR BKN025
     FM291000 30006KT 6SM BR OVC025
     FM291200 30005KT P6SM OVC035=

USA.gov is the U.S. government's official web portal to all federal, state and local government web resources and services.